createdAt,value
2018-12-11T00:04:13.935Z,8.37
2018-12-11T00:09:16.996Z,8.07
2018-12-11T00:14:20.076Z,9.03
2018-12-11T00:19:23.180Z,10.67
2018-12-11T00:24:26.292Z,11.47
2018-12-11T00:29:29.447Z,11.30
2018-12-11T00:34:32.530Z,13.73
2018-12-11T00:39:35.682Z,11.03
2018-12-11T00:44:38.831Z,11.10
2018-12-11T00:49:41.895Z,18.37
2018-12-11T00:54:45.053Z,13.57
2018-12-11T00:59:48.160Z,16.13
2018-12-11T01:04:51.243Z,13.60
2018-12-11T01:09:54.399Z,15.90
2018-12-11T01:15:15.241Z,14.23
2018-12-11T01:20:19.343Z,13.30
2018-12-11T01:25:22.465Z,11.40
2018-12-11T01:30:25.576Z,11.27
2018-12-11T01:35:28.653Z,10.53
2018-12-11T01:40:31.719Z,12.93
2018-12-11T01:45:34.879Z,12.67
2018-12-11T01:50:37.952Z,11.93
2018-12-11T01:55:41.028Z,11.60
2018-12-11T02:00:44.168Z,15.23
2018-12-11T02:05:47.248Z,13.47
2018-12-11T02:10:50.359Z,16.80
2018-12-11T02:15:53.724Z,14.27
2018-12-11T02:20:56.784Z,13.97
2018-12-11T02:25:59.858Z,14.03
2018-12-11T02:31:02.978Z,16.90
2018-12-11T02:36:06.179Z,11.30
2018-12-11T02:41:09.287Z,10.70
2018-12-11T02:46:12.407Z,15.93
2018-12-11T02:51:15.561Z,13.13
2018-12-11T02:56:18.627Z,13.70
2018-12-11T03:01:21.797Z,12.47
2018-12-11T03:06:24.949Z,17.10
2018-12-11T03:11:28.054Z,15.87
2018-12-11T03:16:31.292Z,12.90
2018-12-11T03:21:34.843Z,11.13
2018-12-11T03:26:38.101Z,15.50
2018-12-11T03:31:41.215Z,13.67
2018-12-11T03:36:44.392Z,16.57
2018-12-11T03:41:47.493Z,17.80
2018-12-11T03:46:50.644Z,13.53
2018-12-11T03:51:53.828Z,15.43
2018-12-11T03:56:56.977Z,16.07
2018-12-11T04:02:00.194Z,11.73
2018-12-11T04:07:03.380Z,16.27
2018-12-11T04:12:06.863Z,12.67
2018-12-11T04:17:09.957Z,11.43
2018-12-11T04:22:13.098Z,11.13
2018-12-11T04:27:16.171Z,14.73
2018-12-11T04:32:19.236Z,13.13
2018-12-11T04:37:22.353Z,12.20
2018-12-11T04:42:25.434Z,11.78
2018-12-11T04:47:28.591Z,14.90
2018-12-11T04:52:31.655Z,12.77
2018-12-11T04:57:34.764Z,11.30
2018-12-11T05:02:37.836Z,11.00
2018-12-11T05:07:40.914Z,10.70
2018-12-11T05:12:44.103Z,10.80
2018-12-11T05:17:47.166Z,14.23
2018-12-11T05:22:50.235Z,15.57
2018-12-11T05:27:53.401Z,11.40
2018-12-11T05:32:56.477Z,14.40
2018-12-11T05:37:59.557Z,21.02
2018-12-11T05:43:02.628Z,12.60
2018-12-11T05:48:05.702Z,12.37
2018-12-11T05:53:08.886Z,14.85
2018-12-11T05:58:11.955Z,11.27
2018-12-11T06:03:15.021Z,12.37
2018-12-11T06:08:18.110Z,16.47
2018-12-11T06:13:21.196Z,14.55
2018-12-11T06:18:24.275Z,16.33
2018-12-11T06:23:27.888Z,11.10
2018-12-11T06:28:30.974Z,15.07
2018-12-11T06:33:34.087Z,17.23
2018-12-11T06:38:37.165Z,13.97
2018-12-11T06:43:40.245Z,15.03
2018-12-11T06:48:43.356Z,11.43
2018-12-11T06:53:46.436Z,12.70
2018-12-11T06:58:49.536Z,16.50
2018-12-11T07:03:52.647Z,14.23
2018-12-11T07:08:55.751Z,12.37
2018-12-11T07:13:58.836Z,13.53
2018-12-11T07:19:01.939Z,13.75
2018-12-11T07:24:05.433Z,14.45
2018-12-11T07:29:08.499Z,15.87
2018-12-11T07:34:11.590Z,16.53
2018-12-11T07:39:14.683Z,14.07
2018-12-11T07:44:17.769Z,12.13
2018-12-11T07:49:20.836Z,15.60
2018-12-11T07:54:23.932Z,14.00
2018-12-11T07:59:27.036Z,16.27
2018-12-11T08:04:30.147Z,15.90
2018-12-11T08:09:33.220Z,14.60
2018-12-11T08:14:36.310Z,15.27
2018-12-11T08:19:39.416Z,11.20
2018-12-11T08:24:42.482Z,13.43
2018-12-11T08:29:45.640Z,14.40
2018-12-11T08:34:48.708Z,15.93
2018-12-11T08:39:51.830Z,12.23
2018-12-11T08:44:54.902Z,12.03
2018-12-11T08:49:57.981Z,12.00
2018-12-11T08:55:01.070Z,10.93
2018-12-11T09:00:07.592Z,15.57
2018-12-11T09:05:10.687Z,12.47
2018-12-11T09:10:13.845Z,12.27
2018-12-11T09:15:16.995Z,13.90
2018-12-11T09:20:20.075Z,11.80
2018-12-11T09:25:23.180Z,14.27
2018-12-11T09:30:26.273Z,15.73
2018-12-11T09:35:29.343Z,11.80
2018-12-11T09:40:32.560Z,14.97
2018-12-11T09:45:35.636Z,9.10
2018-12-11T09:50:38.713Z,11.47
2018-12-11T09:55:41.811Z,12.03
2018-12-11T10:00:44.938Z,10.00
2018-12-11T10:05:48.184Z,13.27
2018-12-11T10:10:51.267Z,13.23
2018-12-11T10:15:54.356Z,9.97
2018-12-11T10:20:57.520Z,9.87
2018-12-11T10:26:00.586Z,12.90
2018-12-11T10:31:03.723Z,13.90
2018-12-11T10:36:06.897Z,12.20
2018-12-11T10:41:09.981Z,15.30
2018-12-11T10:46:13.076Z,10.03
2018-12-11T10:51:16.167Z,16.93
2018-12-11T10:56:19.284Z,12.43
2018-12-11T11:01:24.426Z,14.40
2018-12-11T11:06:27.514Z,12.93
2018-12-11T11:11:30.588Z,13.97
2018-12-11T11:16:33.676Z,14.50
2018-12-11T11:21:36.762Z,13.20
2018-12-11T11:26:39.829Z,17.77
2018-12-11T11:31:42.949Z,11.10
2018-12-11T11:36:46.070Z,13.03
2018-12-11T11:41:49.153Z,15.30
2018-12-11T11:46:52.234Z,10.73
2018-12-11T11:51:55.352Z,14.00
2018-12-11T11:56:58.431Z,11.43
2018-12-11T12:02:01.540Z,10.30
2018-12-11T12:07:04.691Z,11.57
2018-12-11T12:12:07.762Z,15.07
2018-12-11T12:17:10.827Z,16.73
2018-12-11T12:22:13.898Z,13.23
2018-12-11T12:27:16.971Z,12.23
2018-12-11T12:32:20.048Z,14.97
2018-12-11T12:37:23.131Z,12.83
2018-12-11T12:42:26.230Z,8.83
2018-12-11T12:47:29.295Z,10.08
2018-12-11T12:52:32.376Z,14.00
2018-12-11T12:57:35.451Z,11.80
2018-12-11T13:02:38.551Z,11.17
2018-12-11T13:07:41.642Z,10.90
2018-12-11T13:12:44.764Z,9.80
2018-12-11T13:17:47.832Z,13.40
2018-12-11T13:22:50.919Z,12.87
2018-12-11T13:27:54.030Z,10.70
2018-12-11T13:32:57.149Z,9.75
2018-12-11T13:38:00.227Z,8.83
2018-12-11T13:43:03.562Z,15.23
2018-12-11T13:48:06.692Z,9.47
2018-12-11T13:53:09.854Z,7.37
2018-12-11T13:58:12.932Z,9.97
2018-12-11T14:03:15.990Z,6.83
2018-12-11T14:08:19.087Z,5.70
2018-12-11T14:13:22.178Z,7.20
2018-12-11T14:18:25.266Z,6.63
2018-12-11T14:23:28.403Z,5.77
2018-12-11T14:28:32.039Z,9.67
2018-12-11T14:33:35.197Z,8.37
2018-12-11T14:38:38.303Z,10.13
2018-12-11T14:43:41.379Z,6.33
2018-12-11T14:48:44.459Z,6.87
2018-12-11T14:53:47.563Z,8.07
2018-12-11T14:58:50.647Z,3.80
2018-12-11T15:03:53.727Z,9.30
2018-12-11T15:08:58.790Z,8.67
2018-12-11T15:14:01.874Z,8.73
2018-12-11T15:19:05.031Z,6.53
2018-12-11T15:24:08.105Z,6.13
2018-12-11T15:29:11.183Z,8.43
2018-12-11T15:34:14.445Z,5.93
2018-12-11T15:39:17.528Z,8.17
2018-12-11T15:44:20.627Z,11.67
2018-12-11T15:49:23.767Z,13.63
2018-12-11T15:54:26.843Z,12.80
2018-12-11T15:59:29.907Z,10.50
2018-12-11T16:04:33.011Z,12.13
2018-12-11T16:09:36.507Z,11.33
2018-12-11T16:14:39.613Z,7.53
2018-12-11T16:19:42.691Z,9.83
2018-12-11T16:24:46.502Z,12.27
2018-12-11T16:29:49.829Z,11.90
2018-12-11T16:34:52.891Z,10.03
2018-12-11T16:39:55.953Z,11.80
2018-12-11T16:44:59.016Z,11.97
2018-12-11T16:50:02.136Z,13.13
2018-12-11T16:55:06.111Z,13.17
2018-12-11T17:00:09.756Z,13.03
2018-12-11T17:05:12.943Z,13.77
2018-12-11T17:10:16.071Z,14.70
2018-12-11T17:15:19.567Z,12.10
2018-12-11T17:20:22.911Z,11.30
2018-12-11T17:25:25.983Z,9.47
2018-12-11T17:30:29.252Z,9.43
2018-12-11T17:35:32.440Z,13.60
2018-12-11T17:40:35.515Z,12.23
2018-12-11T17:45:38.579Z,12.13
2018-12-11T17:50:42.160Z,10.63
2018-12-11T17:55:45.227Z,10.60
2018-12-11T18:00:48.288Z,11.97
2018-12-11T18:05:51.467Z,13.37
2018-12-11T18:10:54.615Z,12.90
2018-12-11T18:15:57.692Z,15.83
2018-12-11T18:21:00.791Z,14.93
2018-12-11T18:26:03.917Z,20.80
2018-12-11T18:31:07.024Z,13.77
2018-12-11T18:36:10.312Z,15.07
2018-12-11T18:41:13.372Z,14.13
2018-12-11T18:46:16.488Z,13.10
2018-12-11T18:51:19.599Z,10.63
2018-12-11T18:56:22.739Z,16.10
2018-12-11T19:01:25.931Z,13.23
2018-12-11T19:06:29.043Z,16.43
2018-12-11T19:11:32.147Z,17.00
2018-12-11T19:16:36.918Z,16.63
2018-12-11T19:21:41.104Z,17.13
2018-12-11T19:26:44.237Z,14.87
2018-12-11T19:31:47.381Z,12.17
2018-12-11T19:36:50.679Z,14.00
2018-12-11T19:41:54.046Z,14.83
2018-12-11T19:46:57.122Z,14.33
2018-12-11T19:52:00.186Z,15.50
2018-12-11T19:57:03.256Z,22.07
2018-12-11T20:02:06.476Z,23.27
2018-12-11T20:07:09.576Z,22.40
2018-12-11T20:12:12.653Z,17.20
2018-12-11T20:17:28.023Z,16.70
2018-12-11T20:22:32.375Z,20.00
2018-12-11T20:27:35.439Z,25.03
2018-12-11T20:32:38.512Z,32.33
2018-12-11T20:37:41.584Z,29.92
2018-12-11T20:42:44.686Z,22.57
2018-12-11T20:47:47.759Z,22.00
2018-12-11T20:52:50.838Z,21.00
2018-12-11T20:57:53.944Z,13.63
2018-12-11T21:02:57.011Z,14.90
2018-12-11T21:08:00.117Z,14.67
2018-12-11T21:13:03.213Z,14.03
2018-12-11T21:18:07.087Z,17.27
2018-12-11T21:23:10.166Z,17.53
2018-12-11T21:28:13.265Z,19.00
2018-12-11T21:33:16.322Z,22.87
2018-12-11T21:38:19.410Z,18.97
2018-12-11T21:43:22.482Z,19.43
2018-12-11T21:48:25.551Z,22.63
2018-12-11T21:53:28.616Z,23.57
2018-12-11T21:58:31.685Z,23.53
2018-12-11T22:03:34.829Z,27.53
2018-12-11T22:08:37.904Z,23.83
2018-12-11T22:13:41.064Z,22.20
2018-12-11T22:18:44.120Z,25.33
2018-12-11T22:23:47.195Z,25.80
2018-12-11T22:28:50.263Z,27.63
2018-12-11T22:33:53.364Z,22.80
2018-12-11T22:38:56.454Z,23.87
2018-12-11T22:43:59.516Z,23.03
2018-12-11T22:49:02.607Z,22.17
2018-12-11T22:54:05.710Z,22.37
2018-12-11T22:59:08.783Z,22.45
2018-12-11T23:04:11.927Z,24.82
2018-12-11T23:09:15.014Z,25.92
2018-12-11T23:14:18.128Z,31.43
2018-12-11T23:19:21.239Z,26.63
2018-12-11T23:24:24.311Z,27.27
2018-12-11T23:29:27.377Z,27.27
2018-12-11T23:34:30.459Z,24.87
2018-12-11T23:39:33.539Z,24.57
2018-12-11T23:44:36.633Z,26.23
2018-12-11T23:49:39.712Z,27.07
2018-12-11T23:54:42.775Z,25.07
2018-12-11T23:59:45.945Z,28.00
